SlimHeader

facebook_page_plugin
× Welcome to the CPL Meteorology question and answer forum. Please feel free to post your questions but more importantly also suggest answers for your forum colleagues. Bob himself or one of the other tutors will get to your question as soon as we can.

TAF's

  • Posts: 26
  • Thank you received: 1

Dobbo created the topic: TAF's

Hi All,

Just have a query about the explanation of the SPECI for Sydney on page 133.

SPECIYSSY 131900Z VRB01KT 3000 HZ VCFG FEW030 18/17 Q1018 RMK RF00.0/000.0

The explanation reads that minimum visibility was 3000 metres. There was fog in the vicinity b/w 8km and 16km. Is the HZ not mentioned in the explanation? or is the visibility 3000 metres due to the haze?

Still getting my head around things.

Dobbo.
#1

Please Log in or Create an account to join the conversation.

  • Posts: 1983
  • Thank you received: 114

bobtait replied the topic: TAF's

3000 HZ means that the visibility is 3000 meters in haze. I've changed the text in the explanation to reflect that. Thanks for your feed-back.

Bob
#2
The following user(s) said Thank You: Dobbo

Please Log in or Create an account to join the conversation.

Time to create page: 0.190 seconds